Time;durP1;ratioP1;P1;durP2;ratioP2;P2;SDS_P1;SDS_P2;PMS_P1;PMS_P2;Temp;Humidity;BMP_temperature;BMP_pressure;BME280_temperature;BME280_humidity;BME280_pressure;Samples;Min_cycle;Max_cycle;Signal;HPM_P1;HPM_P2
2022/01/23 00:01:12;;;;;;;;;;;5.30;99.90;;;4.87;100.00;100815.63;5014766;28;20275;-63
2022/01/23 00:03:44;;;;;;;;;;;5.30;99.90;;;4.77;100.00;100803.97;5014680;28;19924;-64
2022/01/23 00:06:10;;;;;;;;;;;5.30;99.90;;;4.92;100.00;100828.31;5014982;28;19928;-63
2022/01/23 00:08:36;;;;;;;;;;;5.30;99.90;;;4.68;100.00;100782.91;5047322;28;19921;-62
2022/01/23 00:11:02;;;;;;;;;;;5.30;99.90;;;4.90;100.00;100825.78;5014620;28;19922;-63
2022/01/23 00:13:35;;;;;;;;;;;5.30;99.90;;;4.85;100.00;100817.41;5014439;28;19948;-63
2022/01/23 00:18:45;;;;;;;;;;;5.30;99.90;;;4.92;100.00;100813.81;5028270;28;19924;-63
2022/01/23 00:21:11;;;;;;;;;;;5.30;99.90;;;4.92;100.00;100818.09;5013945;28;19918;-64
2022/01/23 00:31:45;;;;;;;;;;;5.30;99.90;;;4.80;100.00;100808.16;5015461;28;20413;-63
2022/01/23 00:34:11;;;;;;;;;;;5.30;99.90;;;4.91;100.00;100826.63;5014044;28;19921;-63
2022/01/23 00:36:36;;;;;;;;;;;5.30;99.90;;;4.90;100.00;100830.91;5015522;28;20306;-64
2022/01/23 00:39:02;;;;;;;;;;;5.30;99.90;;;4.91;100.00;100827.47;5015574;28;19970;-64
2022/01/23 00:41:28;;;;;;;;;;;5.30;99.90;;;4.88;100.00;100832.66;5014131;28;20267;-64
2022/01/23 00:43:54;;;;;;;;;;;5.30;99.90;;;4.86;100.00;100824.16;5014932;28;19925;-64
2022/01/23 00:46:23;;;;;;;;;;;5.30;99.90;;;4.83;100.00;100831.94;5015270;28;19921;-63
2022/01/23 00:49:36;;;;;;;;;;;5.30;99.90;;;4.82;100.00;100822.59;5013673;28;19920;-63
2022/01/23 00:51:38;;;;;;;;;;;5.30;99.90;;;4.87;100.00;100825.00;5010974;28;20355;-64
2022/01/23 00:54:08;;;;;;;;;;;5.30;99.90;;;4.89;100.00;100826.66;5015153;28;20033;-63
2022/01/23 00:56:34;;;;;;;;;;;5.30;99.90;;;4.60;100.00;100780.56;5030165;28;19925;-64
2022/01/23 00:59:00;;;;;;;;;;;5.40;99.90;;;4.91;100.00;100830.03;5029833;28;19917;-63
2022/01/23 01:01:26;;;;;;;;;;;5.30;99.90;;;4.94;100.00;100818.88;5013503;28;20281;-63
2022/01/23 01:03:52;;;;;;;;;;;5.30;99.90;;;4.86;100.00;100803.72;5029722;28;19913;-64
2022/01/23 01:06:18;;;;;;;;;;;5.30;99.90;;;4.88;100.00;100801.97;5014931;28;19917;-63
2022/01/23 01:08:44;;;;;;;;;;;5.40;99.90;;;4.94;100.00;100817.13;5013157;28;19917;-63
2022/01/23 01:31:01;;;;;;;;;;;5.40;99.90;;;4.98;100.00;100808.53;5013636;28;19921;-63
2022/01/23 01:35:46;;;;;;;;;;;5.40;99.90;;;4.78;100.00;100780.06;5041019;28;19924;-63
2022/01/23 01:38:12;;;;;;;;;;;5.40;99.90;;;4.63;100.00;100761.72;5044337;28;19921;-64
2022/01/23 01:40:37;;;;;;;;;;;5.40;99.90;;;4.96;100.00;100815.38;5045903;28;19918;-65
2022/01/23 01:43:03;;;;;;;;;;;5.40;99.90;;;4.85;100.00;100827.63;5045780;28;19917;-63
2022/01/23 01:45:30;;;;;;;;;;;5.40;99.90;;;4.94;100.00;100824.00;5014019;28;20386;-63
2022/01/23 01:48:00;;;;;;;;;;;5.40;99.90;;;4.96;100.00;100828.19;5014012;28;19925;-63
2022/01/23 01:50:26;;;;;;;;;;;5.40;99.90;;;4.95;100.00;100835.88;5014200;28;19924;-63
2022/01/23 01:52:52;;;;;;;;;;;5.40;99.90;;;4.96;100.00;100825.63;5012509;28;19920;-64
2022/01/23 01:55:24;;;;;;;;;;;5.40;99.90;;;4.96;100.00;100825.63;5013725;28;20294;-64
2022/01/23 01:57:54;;;;;;;;;;;5.40;99.90;;;4.93;100.00;100820.59;5012476;28;20022;-63
2022/01/23 02:00:47;;;;;;;;;;;5.40;99.90;;;4.95;100.00;100817.97;5028899;28;19924;-63
2022/01/23 02:03:36;;;;;;;;;;;5.40;99.90;;;4.93;100.00;100815.50;5039927;28;20298;-63
2022/01/23 02:08:48;;;;;;;;;;;5.40;99.90;;;4.41;100.00;100738.44;5040370;28;19929;-63
2022/01/23 02:11:58;;;;;;;;;;;5.40;99.90;;;4.87;100.00;100802.84;5012756;28;19917;-64
2022/01/23 02:17:17;;;;;;;;;;;5.30;99.90;;;4.99;100.00;100809.38;5013653;28;20279;-64
2022/01/23 02:55:21;;;;;;;;;;;5.30;99.90;;;4.92;100.00;100756.72;5017286;28;20223;-63
2022/01/23 03:00:15;;;;;;;;;;;5.40;99.90;;;4.87;100.00;100758.53;5016986;28;19921;-63
2022/01/23 03:02:45;;;;;;;;;;;5.40;99.90;;;4.60;100.00;100724.34;5048822;28;19918;-63
2022/01/23 03:05:24;;;;;;;;;;;5.30;99.90;;;4.88;100.00;100771.28;5047957;28;20015;-64
2022/01/23 03:11:00;;;;;;;;;;;5.30;99.90;;;4.83;100.00;100788.47;5016705;28;19921;-64
2022/01/23 03:16:14;;;;;;;;;;;5.30;99.90;;;4.80;100.00;100787.69;5015880;28;20268;-63
2022/01/23 03:25:24;;;;;;;;;;;5.30;99.90;;;4.41;100.00;100738.44;5029455;28;20381;-63
2022/01/23 03:32:38;;;;;;;;;;;5.30;99.90;;;4.76;100.00;100806.56;5015805;28;20363;-63
2022/01/23 03:35:05;;;;;;;;;;;5.20;99.90;;;4.57;100.00;100765.28;5015112;28;19917;-63
2022/01/23 03:37:31;;;;;;;;;;;5.30;99.90;;;4.87;100.00;100814.78;5015279;28;19921;-63
2022/01/23 03:39:56;;;;;;;;;;;5.30;99.90;;;4.84;100.00;100815.72;5048267;28;19976;-63
2022/01/23 03:42:23;;;;;;;;;;;5.30;99.90;;;4.82;100.00;100814.06;5016358;28;19913;-64
2022/01/23 03:47:38;;;;;;;;;;;5.30;99.90;;;4.56;100.00;100759.34;5016420;28;19941;-63
2022/01/23 03:50:09;;;;;;;;;;;5.40;99.90;;;4.66;100.00;100771.88;5044952;28;20275;-63
2022/01/23 03:52:34;;;;;;;;;;;5.30;99.90;;;4.60;100.00;100765.22;5031300;28;19960;-63
2022/01/23 03:55:03;;;;;;;;;;;5.30;99.90;;;4.82;100.00;100794.47;5015120;28;19922;-63
2022/01/23 03:57:29;;;;;;;;;;;5.40;99.90;;;4.81;100.00;100805.56;4998899;28;19921;-63
2022/01/23 03:59:54;;;;;;;;;;;5.30;99.90;;;4.74;100.00;100809.16;5014621;28;19967;-64
2022/01/23 04:02:20;;;;;;;;;;;5.30;99.90;;;4.62;100.00;100795.84;5031048;28;20393;-63
2022/01/23 04:04:46;;;;;;;;;;;5.20;99.90;;;4.52;100.00;100810.59;5014961;28;19917;-63
2022/01/23 04:07:22;;;;;;;;;;;5.20;99.90;;;4.55;100.00;100806.22;5015634;28;19963;-63
2022/01/23 04:09:48;;;;;;;;;;;5.20;99.90;;;4.51;100.00;100796.13;5047009;28;20375;-63
2022/01/23 04:12:33;;;;;;;;;;;5.10;99.90;;;4.70;100.00;100799.03;5031054;28;19921;-63
2022/01/23 04:15:28;;;;;;;;;;;5.20;99.90;;;4.66;100.00;100805.97;5042282;28;20303;-63
2022/01/23 04:18:46;;;;;;;;;;;5.10;99.90;;;4.40;100.00;100805.75;5015953;28;19917;-64
2022/01/23 04:20:52;;;;;;;;;;;5.20;99.90;;;4.65;100.00;100811.94;5015369;28;20374;-64
2022/01/23 05:01:15;;;;;;;;;;;5.10;99.90;;;4.62;100.00;100786.44;5014581;28;19963;-63
2022/01/23 05:06:09;;;;;;;;;;;5.20;99.90;;;4.73;100.00;100799.81;5014472;28;19925;-63
2022/01/23 05:08:36;;;;;;;;;;;5.20;99.90;;;4.54;100.00;100778.13;5014818;28;19921;-63
2022/01/23 05:11:03;;;;;;;;;;;5.10;99.90;;;4.49;100.00;100773.16;5014461;28;19956;-63
2022/01/23 05:13:29;;;;;;;;;;;5.10;99.90;;;4.71;100.00;100816.06;5013718;28;20018;-63
2022/01/23 05:15:55;;;;;;;;;;;5.20;99.90;;;4.63;100.00;100813.69;5014283;28;19917;-63
2022/01/23 05:18:20;;;;;;;;;;;5.20;99.90;;;4.60;100.00;100816.34;5030030;28;20020;-63
2022/01/23 05:20:48;;;;;;;;;;;5.10;99.90;;;4.08;100.00;100743.50;4996904;28;19917;-63
2022/01/23 05:23:14;;;;;;;;;;;5.10;99.90;;;4.12;100.00;100767.25;5014371;28;19917;-64
2022/01/23 05:25:41;;;;;;;;;;;5.10;99.90;;;4.49;100.00;100820.88;5014411;28;19928;-63
2022/01/23 05:28:07;;;;;;;;;;;5.10;99.90;;;4.28;100.00;100773.69;5029330;28;19917;-64
2022/01/23 05:30:34;;;;;;;;;;;5.00;99.90;;;4.61;100.00;100820.59;5030058;28;20043;-64
2022/01/23 05:33:00;;;;;;;;;;;5.00;99.90;;;4.61;100.00;100822.31;5014323;28;19913;-65
2022/01/23 05:35:28;;;;;;;;;;;5.00;99.90;;;4.29;100.00;100816.22;5013135;28;19968;-64
2022/01/23 05:37:54;;;;;;;;;;;5.10;99.90;;;4.50;100.00;100802.13;5013952;28;19922;-64
2022/01/23 05:40:22;;;;;;;;;;;5.10;99.90;;;4.67;100.00;100817.88;5029327;28;19925;-64
2022/01/23 05:42:48;;;;;;;;;;;5.10;99.90;;;4.69;100.00;100816.13;5012856;28;20363;-64
2022/01/23 05:45:14;;;;;;;;;;;5.10;99.90;;;4.54;100.00;100778.13;5014074;28;19975;-65
2022/01/23 05:47:39;;;;;;;;;;;5.10;99.90;;;4.73;100.00;100821.97;5029251;28;20000;-64
2022/01/23 05:50:06;;;;;;;;;;;5.10;99.90;;;4.66;100.00;100818.75;5045862;28;20000;-64
2022/01/23 05:52:32;;;;;;;;;;;5.20;99.90;;;4.02;100.00;100736.00;5012790;28;20286;-64
2022/01/23 05:54:58;;;;;;;;;;;5.20;99.90;;;4.68;100.00;100828.94;5029022;28;19925;-64
2022/01/23 05:57:24;;;;;;;;;;;5.20;99.90;;;4.75;100.00;100838.97;5013971;28;20389;-63
2022/01/23 05:59:50;;;;;;;;;;;5.10;99.90;;;4.69;100.00;100834.03;5014434;28;19918;-64
2022/01/23 06:02:16;;;;;;;;;;;5.10;99.90;;;4.47;100.00;100802.19;5045343;28;20292;-64
2022/01/23 06:04:41;;;;;;;;;;;5.10;99.90;;;4.52;100.00;100802.91;5013843;28;19922;-64
2022/01/23 06:07:07;;;;;;;;;;;5.20;99.90;;;4.85;100.00;100852.38;5012300;28;20284;-64
2022/01/23 06:09:36;;;;;;;;;;;5.30;99.90;;;4.93;100.00;100846.19;5045438;28;19944;-63
2022/01/23 06:12:02;;;;;;;;;;;5.40;99.90;;;4.88;100.00;100844.59;5044857;28;19917;-64
2022/01/23 06:14:28;;;;;;;;;;;5.40;99.90;;;4.62;100.00;100814.56;5013988;28;19921;-64
2022/01/23 06:16:54;;;;;;;;;;;5.40;99.90;;;4.87;100.00;100863.38;5013667;28;20358;-64
2022/01/23 06:19:19;;;;;;;;;;;5.30;99.90;;;4.58;100.00;100823.22;5012087;28;19918;-64
2022/01/23 06:21:45;;;;;;;;;;;5.30;99.90;;;4.85;100.00;100860.03;5013808;28;19914;-63
2022/01/23 06:24:24;;;;;;;;;;;5.30;99.90;;;4.51;100.00;100803.78;5012289;28;19921;-64
2022/01/23 06:26:52;;;;;;;;;;;5.30;99.90;;;4.81;100.00;100855.88;5012777;28;20454;-65
2022/01/23 06:29:18;;;;;;;;;;;5.30;99.90;;;4.72;100.00;100835.63;4996079;28;19972;-63
2022/01/23 06:31:47;;;;;;;;;;;5.20;99.90;;;4.42;100.00;100799.75;5028877;28;20424;-64
2022/01/23 06:34:14;;;;;;;;;;;5.20;99.90;;;4.50;100.00;100841.28;5028217;28;20259;-64
2022/01/23 06:36:40;;;;;;;;;;;5.20;99.90;;;4.68;100.00;100847.69;5028608;28;19964;-64
2022/01/23 06:39:08;;;;;;;;;;;5.10;99.90;;;4.69;100.00;100862.13;5028717;28;20028;-64
2022/01/23 06:41:34;;;;;;;;;;;5.10;99.90;;;4.67;100.00;100852.81;5012171;28;20286;-64
2022/01/23 06:44:00;;;;;;;;;;;5.20;99.90;;;4.68;100.00;100857.91;5028952;28;19918;-64
2022/01/23 06:46:25;;;;;;;;;;;5.20;99.90;;;4.47;100.00;100825.19;5013599;28;19917;-64
2022/01/23 06:48:51;;;;;;;;;;;5.20;99.90;;;4.70;100.00;100863.78;5012292;28;19923;-64
2022/01/23 06:51:17;;;;;;;;;;;5.10;99.90;;;4.68;100.00;100867.28;5013195;28;20815;-64
2022/01/23 06:53:43;;;;;;;;;;;5.10;99.90;;;4.67;100.00;100870.72;5044947;28;19917;-64
2022/01/23 06:56:09;;;;;;;;;;;5.10;99.90;;;4.47;100.00;100869.47;5013282;28;19917;-64
2022/01/23 06:58:34;;;;;;;;;;;5.10;99.90;;;4.68;100.00;100870.69;5028501;28;19917;-65
2022/01/23 07:01:00;;;;;;;;;;;5.10;99.90;;;4.70;100.00;100879.13;5012134;28;19968;-64
2022/01/23 07:03:26;;;;;;;;;;;5.10;99.90;;;4.61;100.00;100861.50;5013237;28;19917;-64
2022/01/23 07:05:52;;;;;;;;;;;5.10;99.90;;;4.74;100.00;100885.88;5028934;28;19917;-64
2022/01/23 07:08:18;;;;;;;;;;;5.10;99.90;;;4.56;100.00;100860.75;5012829;28;19921;-64
2022/01/23 07:10:44;;;;;;;;;;;5.10;99.90;;;4.78;100.00;100884.06;5012968;28;19922;-65
2022/01/23 07:13:10;;;;;;;;;;;5.10;99.90;;;4.49;100.00;100837.06;5011939;28;19970;-64
2022/01/23 07:15:35;;;;;;;;;;;5.10;99.90;;;4.76;100.00;100888.41;5012153;28;19918;-64
2022/01/23 07:18:01;;;;;;;;;;;5.20;99.90;;;4.73;100.00;100878.22;5012890;28;19917;-64
2022/01/23 07:20:27;;;;;;;;;;;5.20;99.90;;;4.80;100.00;100890.81;5028423;28;20426;-64
2022/01/23 07:22:54;;;;;;;;;;;5.20;99.90;;;4.74;100.00;100887.59;5011722;28;19925;-65
2022/01/23 07:25:20;;;;;;;;;;;5.20;99.90;;;4.80;100.00;100901.06;5044605;28;19921;-64
2022/01/23 07:27:52;;;;;;;;;;;5.20;99.90;;;4.66;100.00;100867.31;5013304;28;19924;-64
2022/01/23 07:30:32;;;;;;;;;;;5.30;99.90;;;4.80;100.00;100903.59;5028966;28;20290;-64
2022/01/23 07:32:58;;;;;;;;;;;5.30;99.90;;;4.83;100.00;100893.31;5017171;28;19984;-64
2022/01/23 07:35:24;;;;;;;;;;;5.40;99.90;;;4.96;100.00;100916.84;5031415;28;19995;-64
2022/01/23 07:37:49;;;;;;;;;;;5.40;99.90;;;4.72;100.00;100909.78;5016662;28;20385;-64
2022/01/23 07:40:15;;;;;;;;;;;5.40;99.90;;;4.75;100.00;100923.34;5016376;28;19924;-64
2022/01/23 07:42:41;;;;;;;;;;;5.30;99.90;;;4.64;100.00;100927.84;5015225;28;19928;-64
2022/01/23 07:45:07;;;;;;;;;;;5.30;99.90;;;4.45;100.00;100918.91;5014841;28;20035;-64
2022/01/23 07:47:33;;;;;;;;;;;5.10;99.90;;;4.40;100.00;100926.69;5014972;28;19924;-64
2022/01/23 07:50:00;;;;;;;;;;;5.00;99.90;;;4.37;100.00;100921.66;5016625;28;19917;-64
2022/01/23 07:52:29;;;;;;;;;;;5.00;99.90;;;4.38;100.00;100935.25;5016056;28;20260;-64
2022/01/23 07:54:55;;;;;;;;;;;4.90;99.90;;;4.33;100.00;100924.31;5014982;28;19917;-64
2022/01/23 07:57:21;;;;;;;;;;;4.90;99.90;;;4.05;100.00;100878.94;5014914;28;19925;-64
2022/01/23 07:59:47;;;;;;;;;;;4.90;99.90;;;4.11;100.00;100906.91;5016277;28;19917;-64
2022/01/23 08:02:12;;;;;;;;;;;4.80;99.90;;;4.35;100.00;100935.34;5015980;28;19940;-64
2022/01/23 08:04:38;;;;;;;;;;;4.80;99.90;;;3.93;100.00;100856.22;5014788;28;19944;-64
2022/01/23 08:07:22;;;;;;;;;;;4.80;99.90;;;4.47;100.00;100933.34;5015920;28;19917;-64
2022/01/23 08:09:48;;;;;;;;;;;4.90;99.90;;;4.28;100.00;100905.72;5015694;28;19922;-64
2022/01/23 08:12:14;;;;;;;;;;;5.00;99.90;;;4.39;100.00;100929.28;5014281;28;19918;-65
2022/01/23 08:14:40;;;;;;;;;;;5.00;99.90;;;4.31;100.00;100921.78;5031078;28;19923;-64
2022/01/23 08:17:06;;;;;;;;;;;4.90;99.90;;;4.45;100.00;100939.38;5014205;28;20363;-65
2022/01/23 08:19:31;;;;;;;;;;;5.00;99.90;;;4.55;100.00;100941.69;5015626;28;19924;-64
2022/01/23 08:21:57;;;;;;;;;;;5.00;99.90;;;4.63;100.00;100946.63;5031128;28;19921;-64
2022/01/23 08:24:23;;;;;;;;;;;5.10;99.90;;;4.67;100.00;100944.84;5015582;28;19975;-64
2022/01/23 08:26:49;;;;;;;;;;;5.10;99.90;;;4.70;100.00;100939.66;5015769;28;19918;-64
2022/01/23 08:29:14;;;;;;;;;;;5.10;99.90;;;4.75;100.00;100941.25;5047470;28;20282;-64
2022/01/23 08:31:40;;;;;;;;;;;5.20;99.90;;;4.63;100.00;100943.22;5015489;28;19921;-65
2022/01/23 08:34:06;;;;;;;;;;;5.20;99.90;;;4.37;100.00;100870.53;5015486;28;19917;-65
2022/01/23 08:36:35;;;;;;;;;;;5.20;99.90;;;4.92;100.00;100953.63;5015580;28;19964;-64
2022/01/23 08:39:01;;;;;;;;;;;5.30;99.90;;;4.89;100.00;100951.13;5014246;28;19945;-65
2022/01/23 08:44:11;;;;;;;;;;;5.40;99.90;;;4.93;100.00;100928.03;5015088;28;19928;-65
2022/01/23 08:46:37;;;;;;;;;;;5.50;99.90;;;5.15;100.00;100963.28;5015439;28;19917;-65
2022/01/23 08:49:03;;;;;;;;;;;5.50;99.90;;;5.30;100.00;100966.31;5014030;28;19924;-64
2022/01/23 08:51:29;;;;;;;;;;;5.70;99.90;;;5.36;100.00;100963.59;5046976;28;19917;-65
2022/01/23 08:53:55;;;;;;;;;;;5.80;99.90;;;5.23;100.00;100956.28;5015153;28;19917;-65
2022/01/23 08:56:20;;;;;;;;;;;5.80;99.90;;;5.22;100.00;100946.91;5030332;28;19922;-65
2022/01/23 08:58:46;;;;;;;;;;;5.80;99.90;;;5.25;100.00;100939.16;5046825;28;19921;-65
2022/01/23 09:01:12;;;;;;;;;;;5.80;99.90;;;5.37;100.00;100943.94;5014949;28;19918;-64
2022/01/23 09:03:39;;;;;;;;;;;5.90;99.90;;;5.48;100.00;100952.19;5013752;28;20290;-65
2022/01/23 09:06:05;;;;;;;;;;;5.90;99.90;;;5.46;100.00;100933.47;5014834;28;19917;-66
2022/01/23 09:08:34;;;;;;;;;;;6.00;99.90;;;5.27;100.00;100919.50;5013452;28;20302;-66
2022/01/23 09:11:07;;;;;;;;;;;6.00;99.90;;;5.18;100.00;100896.72;5015207;28;19921;-65
2022/01/23 09:13:52;;;;;;;;;;;6.10;99.90;;;5.52;100.00;100945.28;5013754;28;19987;-65
2022/01/23 09:16:18;;;;;;;;;;;6.10;99.90;;;5.77;100.00;100948.84;5014721;28;19964;-65
2022/01/23 09:18:44;;;;;;;;;;;6.20;99.90;;;5.90;100.00;100934.88;5046544;28;20012;-64
2022/01/23 09:21:10;;;;;;;;;;;6.30;99.90;;;6.03;100.00;100946.44;5014593;28;19917;-64
2022/01/23 09:23:35;;;;;;;;;;;6.40;99.90;;;6.03;100.00;100941.31;5046282;28;19917;-65
2022/01/23 09:26:07;;;;;;;;;;;6.40;99.90;;;6.04;100.00;100943.00;5046608;28;19960;-64
2022/01/23 09:31:04;;;;;;;;;;;6.60;99.90;;;6.08;100.00;100947.16;5124042;27;19951;-64
2022/01/23 09:33:30;;;;;;;;;;;6.60;99.90;;;5.98;100.00;100943.16;5092827;28;20020;-66
2022/01/23 09:35:56;;;;;;;;;;;6.60;99.90;;;5.69;100.00;100885.03;5093162;28;19962;-65
2022/01/23 09:38:21;;;;;;;;;;;6.70;99.90;;;6.10;100.00;100942.81;5092477;28;19920;-64
2022/01/23 09:40:49;;;;;;;;;;;6.70;99.90;;;6.21;100.00;100939.94;5076185;28;19920;-65
2022/01/23 09:43:17;;;;;;;;;;;6.80;99.90;;;6.33;100.00;100934.47;5092250;28;20269;-65
2022/01/23 09:45:45;;;;;;;;;;;6.90;99.90;;;6.23;100.00;100943.31;5111668;28;19920;-64
2022/01/23 09:48:11;;;;;;;;;;;7.00;99.90;;;6.39;100.00;100953.94;5092617;28;19920;-66
2022/01/23 09:50:36;;;;;;;;;;;7.00;99.80;;;6.44;100.00;100942.66;5110837;28;19930;-65
2022/01/23 09:53:02;;;;;;;;;;;7.00;99.70;;;6.49;100.00;100932.28;5110776;28;19927;-66
2022/01/23 09:55:28;;;;;;;;;;;7.10;99.70;;;6.63;100.00;100953.19;5075819;28;19973;-66
2022/01/23 09:57:54;;;;;;;;;;;7.20;99.30;;;6.77;100.00;100948.47;5092196;28;20003;-66
2022/01/23 10:00:24;;;;;;;;;;;7.30;99.30;;;6.89;100.00;100944.69;5110507;28;19924;-66
2022/01/23 10:02:50;;;;;;;;;;;7.50;99.30;;;6.58;100.00;100941.41;5110663;28;19923;-66
2022/01/23 10:05:16;;;;;;;;;;;7.50;98.90;;;6.73;100.00;100938.34;5092329;28;20019;-65
2022/01/23 10:07:42;;;;;;;;;;;7.60;98.10;;;6.64;100.00;100897.59;5075842;28;19927;-66
2022/01/23 10:10:16;;;;;;;;;;;7.60;97.70;;;6.98;100.00;100934.13;5092710;28;19920;-65
2022/01/23 10:12:50;;;;;;;;;;;7.70;97.50;;;6.64;100.00;100864.28;5076796;28;19920;-64
2022/01/23 10:15:16;;;;;;;;;;;7.80;97.00;;;7.03;100.00;100939.94;5092876;28;19924;-64
2022/01/23 10:17:42;;;;;;;;;;;7.90;96.50;;;7.18;100.00;100939.41;5075505;28;19920;-65
2022/01/23 10:20:09;;;;;;;;;;;8.00;96.10;;;6.82;100.00;100938.91;5074695;28;19920;-66
2022/01/23 10:22:36;;;;;;;;;;;7.80;95.60;;;6.96;100.00;100940.19;5075587;28;19973;-65
2022/01/23 10:25:16;;;;;;;;;;;7.80;95.80;;;6.56;100.00;100864.53;5110433;28;19916;-65
2022/01/23 10:28:04;;;;;;;;;;;7.90;95.60;;;6.88;100.00;100943.00;5092756;28;20457;-64
2022/01/23 10:30:48;;;;;;;;;;;7.90;95.40;;;6.93;100.00;100943.69;5091532;28;19974;-66
2022/01/23 10:33:19;;;;;;;;;;;8.00;95.40;;;7.14;100.00;100898.53;5076234;28;20010;-62
2022/01/23 10:36:19;;;;;;;;;;;8.10;95.30;;;7.40;100.00;100942.13;5075091;28;19955;-65
2022/01/23 10:38:51;;;;;;;;;;;8.10;95.00;;;7.50;100.00;100943.44;5092351;28;19920;-64
2022/01/23 10:49:58;;;;;;;;;;;8.10;94.40;;;7.35;100.00;100938.00;5096508;28;19924;-66
2022/01/23 10:52:34;;;;;;;;;;;8.10;94.70;;;7.07;100.00;100902.19;5096181;28;20296;-65
2022/01/23 10:55:21;;;;;;;;;;;8.00;94.80;;;7.15;100.00;100936.13;5096269;28;19920;-64
2022/01/23 10:57:48;;;;;;;;;;;7.90;94.50;;;7.01;100.00;100926.31;5076944;28;19924;-64
2022/01/23 11:00:34;;;;;;;;;;;7.90;94.80;;;7.27;100.00;100935.72;5095614;28;20266;-65
2022/01/23 11:03:17;;;;;;;;;;;7.90;94.90;;;7.31;100.00;100929.59;5076962;28;19913;-63
2022/01/23 11:05:44;;;;;;;;;;;8.00;94.70;;;7.32;100.00;100936.41;5080026;28;19965;-66
2022/01/23 11:08:23;;;;;;;;;;;8.00;94.80;;;6.97;100.00;100924.75;5096045;28;19966;-65
2022/01/23 11:11:07;;;;;;;;;;;8.00;94.70;;;6.85;100.00;100882.34;5061163;28;19924;-67
2022/01/23 11:19:41;;;;;;;;;;;7.90;94.40;;;7.09;100.00;100926.03;5095398;28;19965;-64
2022/01/23 11:22:20;;;;;;;;;;;7.90;94.60;;;7.25;100.00;100935.75;5096047;28;19920;-68
2022/01/23 11:24:47;;;;;;;;;;;7.90;94.60;;;7.08;100.00;100875.63;5079024;28;19959;-66
2022/01/23 11:27:17;;;;;;;;;;;8.00;94.90;;;6.89;100.00;100885.66;5077100;28;19920;-65
2022/01/23 11:30:09;;;;;;;;;;;7.90;94.80;;;7.02;100.00;100924.56;5077406;28;19924;-65
2022/01/23 11:32:39;;;;;;;;;;;7.80;94.80;;;7.05;100.00;100909.94;5079550;28;19999;-64
2022/01/23 11:35:16;;;;;;;;;;;7.80;94.60;;;7.14;100.00;100885.69;5077861;28;20036;-65
2022/01/23 11:37:51;;;;;;;;;;;7.80;94.40;;;7.06;100.00;100857.72;5060720;28;19920;-64
2022/01/23 11:54:48;;;;;;;;;;;7.90;94.50;;;7.04;100.00;100833.00;5079556;28;19977;-64
2022/01/23 11:57:35;;;;;;;;;;;7.90;94.70;;;7.51;100.00;100890.38;5076576;28;19928;-63
2022/01/23 12:00:06;;;;;;;;;;;8.00;94.60;;;7.30;100.00;100871.44;5094697;28;19971;-66
2022/01/23 12:02:42;;;;;;;;;;;8.00;94.30;;;7.34;100.00;100890.13;5076775;28;19928;-65
2022/01/23 12:05:12;;;;;;;;;;;8.00;94.30;;;7.29;100.00;100905.69;5063041;28;19916;-65
2022/01/23 12:07:39;;;;;;;;;;;8.00;94.30;;;7.24;100.00;100889.63;5094460;28;19916;-66
2022/01/23 12:10:17;;;;;;;;;;;8.00;94.30;;;7.52;100.00;100895.44;5060285;28;20010;-66
2022/01/23 12:12:49;;;;;;;;;;;8.10;93.90;;;7.51;100.00;100892.94;5094553;28;20262;-66
2022/01/23 12:18:16;;;;;;;;;;;8.10;93.40;;;7.13;100.00;100845.50;5080596;28;20057;-66
2022/01/23 12:20:45;;;;;;;;;;;8.00;92.90;;;7.16;100.00;100827.44;5076670;28;19922;-66
2022/01/23 12:23:11;;;;;;;;;;;8.00;92.90;;;7.39;100.00;100865.13;5059645;28;19962;-65
2022/01/23 12:25:55;;;;;;;;;;;8.10;93.10;;;7.35;100.00;100873.81;5076152;28;19920;-66
2022/01/23 12:28:32;;;;;;;;;;;8.10;93.00;;;7.34;100.00;100875.56;5075604;28;19928;-66
2022/01/23 12:30:59;;;;;;;;;;;8.10;92.50;;;7.37;100.00;100887.44;5093892;28;20414;-66
2022/01/23 12:33:32;;;;;;;;;;;8.10;92.70;;;7.41;100.00;100883.91;5075959;28;19964;-66
2022/01/23 12:36:23;;;;;;;;;;;8.00;92.90;;;7.35;100.00;100874.66;5076223;28;20365;-66
2022/01/23 12:39:16;;;;;;;;;;;8.00;93.00;;;7.36;100.00;100888.34;5094293;28;20004;-67
2022/01/23 12:41:51;;;;;;;;;;;8.00;93.50;;;7.43;100.00;100871.81;5093756;28;19916;-65
2022/01/23 12:44:23;;;;;;;;;;;8.00;92.40;;;7.34;100.00;100861.88;5094284;28;19916;-66
2022/01/23 12:46:49;;;;;;;;;;;8.00;91.20;;;7.15;100.00;100862.53;5093923;28;19917;-65
2022/01/23 12:49:35;;;;;;;;;;;7.90;91.50;;;7.03;100.00;100841.56;5075987;28;19916;-66
2022/01/23 12:52:09;;;;;;;;;;;7.80;91.80;;;7.08;100.00;100865.38;5060951;28;19916;-66
2022/01/23 12:54:36;;;;;;;;;;;7.80;92.20;;;7.37;100.00;100861.78;5075544;28;19920;-66
2022/01/23 12:57:12;;;;;;;;;;;7.90;92.50;;;7.43;100.00;100858.97;5075640;28;19923;-65
2022/01/23 12:59:38;;;;;;;;;;;7.90;92.30;;;6.96;100.00;100799.06;5093280;28;20282;-65
2022/01/23 13:02:12;;;;;;;;;;;7.90;92.50;;;7.11;100.00;100814.75;5075575;28;19959;-65
2022/01/23 13:04:44;;;;;;;;;;;7.90;92.40;;;7.42;100.00;100857.31;5075531;28;19973;-65
2022/01/23 13:07:17;;;;;;;;;;;7.90;91.60;;;7.20;100.00;100842.66;5059334;28;20262;-65
2022/01/23 13:31:59;;;;;;;;;;;7.70;92.40;;;7.12;100.00;100831.00;5064062;28;19939;-64
2022/01/23 13:34:49;;;;;;;;;;;7.70;92.60;;;6.69;100.00;100764.91;5076136;28;19920;-64
2022/01/23 13:37:20;;;;;;;;;;;7.60;93.10;;;6.78;100.00;100795.38;5085410;28;20411;-64
2022/01/23 13:39:51;;;;;;;;;;;7.50;93.40;;;6.83;100.00;100816.63;5058570;28;19916;-63
2022/01/23 13:48:02;;;;;;;;;;;7.40;93.60;;;6.84;100.00;100805.44;5077680;28;19966;-63
2022/01/23 13:53:34;;;;;;;;;;;7.40;93.60;;;6.92;100.00;100828.28;5093033;28;20279;-64
2022/01/23 13:58:51;;;;;;;;;;;7.40;93.30;;;6.91;100.00;100822.31;5093078;28;20355;-64
2022/01/23 14:04:03;;;;;;;;;;;7.40;93.40;;;6.82;100.00;100820.06;5057172;28;20428;-63
2022/01/23 14:06:29;;;;;;;;;;;7.30;93.10;;;6.67;100.00;100788.06;5057937;28;19943;-64
2022/01/23 14:09:06;;;;;;;;;;;7.30;93.20;;;6.86;100.00;100829.31;5074772;28;19916;-63
2022/01/23 14:11:31;;;;;;;;;;;7.30;93.10;;;6.88;100.00;100827.53;5092637;28;19920;-63
2022/01/23 14:14:15;;;;;;;;;;;7.30;93.30;;;6.62;100.00;100792.50;5075073;28;19920;-64
2022/01/23 14:16:41;;;;;;;;;;;7.30;93.30;;;6.71;100.00;100817.00;5059669;28;19920;-64
2022/01/23 14:19:25;;;;;;;;;;;7.30;93.30;;;6.85;100.00;100827.63;5078632;28;19928;-63
2022/01/23 14:21:59;;;;;;;;;;;7.30;93.40;;;6.79;100.00;100823.56;5096861;28;19924;-63
2022/01/23 14:24:28;;;;;;;;;;;7.30;92.90;;;6.83;100.00;100829.44;5096591;28;20293;-64
2022/01/23 14:26:56;;;;;;;;;;;7.30;92.70;;;6.82;100.00;100826.03;5096292;28;19916;-65
2022/01/23 14:29:23;;;;;;;;;;;7.30;92.20;;;6.75;100.00;100823.72;5077774;28;20362;-63
2022/01/23 14:32:11;;;;;;;;;;;7.30;92.40;;;6.73;100.00;100830.63;5096349;28;19949;-63
2022/01/23 14:34:37;;;;;;;;;;;7.30;92.50;;;6.59;100.00;100818.25;5078435;28;19959;-63
2022/01/23 14:37:06;;;;;;;;;;;7.20;92.70;;;6.75;100.00;100836.56;5096592;28;19920;-63
2022/01/23 14:39:32;;;;;;;;;;;7.20;92.80;;;6.79;100.00;100836.38;5096257;28;19973;-63
2022/01/23 14:42:09;;;;;;;;;;;7.20;92.50;;;6.79;100.00;100833.81;5078070;28;20080;-63
2022/01/23 14:44:35;;;;;;;;;;;7.20;92.40;;;6.43;100.00;100779.44;5095912;28;20377;-63
2022/01/23 14:47:01;;;;;;;;;;;7.20;92.30;;;6.76;100.00;100838.19;5096435;28;19928;-65
2022/01/23 14:49:30;;;;;;;;;;;7.20;92.40;;;6.78;100.00;100828.72;5096249;28;20022;-65
2022/01/23 14:51:57;;;;;;;;;;;7.20;91.80;;;6.73;100.00;100835.75;5095952;28;19924;-63
2022/01/23 14:54:24;;;;;;;;;;;7.10;91.70;;;6.70;100.00;100835.84;5096350;28;20019;-63
2022/01/23 14:56:51;;;;;;;;;;;7.20;91.60;;;6.76;100.00;100825.38;5077934;28;20003;-63
2022/01/23 14:59:17;;;;;;;;;;;7.20;91.50;;;6.72;100.00;100834.91;5077756;28;19950;-64